createdAt,value
2019-05-13T00:00:03.749Z,52.6
2019-05-13T00:05:03.868Z,52.71
2019-05-13T00:10:04.046Z,52.75
2019-05-13T00:15:03.724Z,52.82
2019-05-13T00:20:04.036Z,52.86
2019-05-13T00:25:04.068Z,52.89
2019-05-13T00:30:04.316Z,52.87
2019-05-13T00:35:03.927Z,52.94
2019-05-13T00:40:03.918Z,52.98
2019-05-13T00:45:03.991Z,53.02
2019-05-13T00:50:03.681Z,53.09
2019-05-13T00:55:04.212Z,53.21
2019-05-13T01:00:03.495Z,53.27
2019-05-13T01:05:04.297Z,53.3
2019-05-13T01:10:04.243Z,53.33
2019-05-13T01:15:04.116Z,53.36
2019-05-13T01:20:04.174Z,53.39
2019-05-13T01:25:03.902Z,53.44
2019-05-13T01:30:04.116Z,53.45
2019-05-13T01:35:04.560Z,53.57
2019-05-13T01:40:05.087Z,53.59
2019-05-13T01:45:04.577Z,53.64
2019-05-13T01:50:04.053Z,53.73
2019-05-13T01:55:04.098Z,53.78
2019-05-13T02:00:04.680Z,53.86
2019-05-13T02:05:03.967Z,54.01
2019-05-13T02:10:04.291Z,54.12
2019-05-13T02:15:04.370Z,54.43
2019-05-13T02:20:03.888Z,54.48
2019-05-13T02:25:04.495Z,54.56
2019-05-13T02:30:05.472Z,54.71
2019-05-13T02:35:03.410Z,55.05
2019-05-13T02:40:03.945Z,55.25
2019-05-13T02:45:03.823Z,55.35
2019-05-13T02:50:05.045Z,55.42
2019-05-13T02:55:04.053Z,55.53
2019-05-13T03:00:04.044Z,55.55
2019-05-13T03:05:03.368Z,55.51
2019-05-13T03:10:04.129Z,55.48
2019-05-13T03:15:03.209Z,55.32
2019-05-13T03:20:04.154Z,55.28
2019-05-13T03:25:03.397Z,55.21
2019-05-13T03:30:04.463Z,55.25
2019-05-13T03:35:07.351Z,55.43
2019-05-13T03:40:03.587Z,55.51
2019-05-13T03:45:03.401Z,55.5
2019-05-13T03:50:03.812Z,55.57
2019-05-13T03:55:03.314Z,55.69
2019-05-13T04:00:03.746Z,55.65
2019-05-13T04:05:04.219Z,55.74
2019-05-13T04:10:03.674Z,55.77
2019-05-13T04:15:04.032Z,55.83
2019-05-13T04:20:03.203Z,55.81
2019-05-13T04:25:02.858Z,55.81
2019-05-13T04:30:03.658Z,55.91
2019-05-13T04:35:04.175Z,56.08
2019-05-13T04:40:03.889Z,56.18
2019-05-13T04:45:03.203Z,56.52
2019-05-13T04:50:03.334Z,56.8
2019-05-13T04:55:03.647Z,57.26
2019-05-13T05:00:04.430Z,57.47
2019-05-13T05:05:03.616Z,57.43
2019-05-13T05:10:21.399Z,57.35
2019-05-13T05:15:02.995Z,57.38
2019-05-13T05:20:03.759Z,58.06
2019-05-13T05:25:02.546Z,59.34
2019-05-13T05:30:03.098Z,60.12
2019-05-13T05:35:02.612Z,61.4
2019-05-13T05:40:03.163Z,61.83
2019-05-13T05:45:02.908Z,62.34
2019-05-13T05:50:03.154Z,62.88
2019-05-13T05:55:02.754Z,62.72
2019-05-13T06:00:03.327Z,62.86
2019-05-13T06:05:02.907Z,63.03
2019-05-13T06:10:03.463Z,63.29
2019-05-13T06:15:02.914Z,63.71
2019-05-13T06:20:04.161Z,62.53
2019-05-13T06:25:03.064Z,62.48
2019-05-13T06:30:02.650Z,61.66
2019-05-13T06:35:03.121Z,62.16
2019-05-13T06:40:02.641Z,62.24
2019-05-13T06:45:03.185Z,60.84
2019-05-13T06:50:03.419Z,61.12
2019-05-13T06:55:03.274Z,61.15
2019-05-13T07:00:02.773Z,60.37
2019-05-13T07:05:03.323Z,60.46
2019-05-13T07:10:02.847Z,59.84
2019-05-13T07:15:03.385Z,59.66
2019-05-13T07:20:02.906Z,59.12
2019-05-13T07:25:03.338Z,58.33
2019-05-13T07:30:02.883Z,58.16
2019-05-13T07:35:04.265Z,57.88
2019-05-13T07:40:03.050Z,57.42
2019-05-13T07:45:02.578Z,56.67
2019-05-13T07:50:03.118Z,56.62
2019-05-13T07:55:02.633Z,56.46
2019-05-13T08:00:03.199Z,55.84
2019-05-13T08:05:02.775Z,55.0
2019-05-13T08:10:03.622Z,54.47
2019-05-13T08:15:03.283Z,54.24
2019-05-13T08:20:03.186Z,53.72
2019-05-13T08:25:03.395Z,53.06
2019-05-13T08:30:02.969Z,52.97
2019-05-13T08:35:08.644Z,52.56
2019-05-13T08:40:02.737Z,51.79
2019-05-13T08:45:03.288Z,50.91
2019-05-13T08:50:04.400Z,50.37
2019-05-13T08:55:03.241Z,49.87
2019-05-13T09:00:05.136Z,49.81
2019-05-13T09:05:03.304Z,49.32
2019-05-13T09:10:02.826Z,49.26
2019-05-13T09:15:03.717Z,48.42
2019-05-13T09:20:03.302Z,48.12
2019-05-13T09:25:02.817Z,47.17
2019-05-13T09:30:03.296Z,46.37
2019-05-13T09:35:03.221Z,46.49
2019-05-13T09:40:02.828Z,46.2
2019-05-13T09:45:03.297Z,45.58
2019-05-13T09:50:04.623Z,45.76
2019-05-13T09:55:03.368Z,43.31
2019-05-13T10:00:02.954Z,43.96
2019-05-13T10:05:03.512Z,43.98
2019-05-13T10:10:03.020Z,42.51
2019-05-13T10:15:02.639Z,43.04
2019-05-13T10:20:03.193Z,39.32
2019-05-13T10:25:02.827Z,41.15
2019-05-13T10:30:03.362Z,40.41
2019-05-13T10:35:03.566Z,41.42
2019-05-13T10:40:03.122Z,40.92
2019-05-13T10:45:02.815Z,41.14
2019-05-13T10:50:03.403Z,39.82
2019-05-13T10:55:02.914Z,40.26
2019-05-13T11:00:03.472Z,40.79
2019-05-13T11:05:03.406Z,37.35
2019-05-13T11:10:02.959Z,38.65
2019-05-13T11:15:02.768Z,36.73
2019-05-13T11:20:03.480Z,39.02
2019-05-13T11:25:03.166Z,36.98
2019-05-13T11:30:05.783Z,35.7
2019-05-13T11:35:02.782Z,36.86
2019-05-13T11:40:03.417Z,38.54
2019-05-13T11:45:03.142Z,35.61
2019-05-13T11:50:18.063Z,38.14
2019-05-13T12:00:02.763Z,34.68
2019-05-13T12:05:03.982Z,32.2
2019-05-13T12:10:02.930Z,34.76
2019-05-13T12:15:26.562Z,34.67
2019-05-13T12:20:03.398Z,34.11
2019-05-13T12:25:02.996Z,31.77
2019-05-13T12:30:03.208Z,31.4
2019-05-13T12:35:03.672Z,36.19
2019-05-13T12:40:03.478Z,37.74
2019-05-13T12:45:09.640Z,37.76
2019-05-13T12:50:03.643Z,38.79
2019-05-13T12:55:03.568Z,35.42
2019-05-13T13:00:03.125Z,37.17
2019-05-13T13:05:09.297Z,38.71
2019-05-13T13:10:02.704Z,38.25
2019-05-13T13:15:31.902Z,35.56
2019-05-13T13:20:08.875Z,29.66
2019-05-13T13:25:04.872Z,34.29
2019-05-13T13:30:07.978Z,35.7
2019-05-13T13:35:03.877Z,36.78
2019-05-13T13:40:03.394Z,34.8
2019-05-13T13:45:05.983Z,28.1
2019-05-13T13:50:02.956Z,26.53
2019-05-13T13:55:07.479Z,25.67
2019-05-13T14:00:22.500Z,29.01
2019-05-13T14:05:05.522Z,26.53
2019-05-13T14:06:30.769Z,35.54
2019-05-13T14:10:06.929Z,24.81
2019-05-13T14:15:02.702Z,31.71
2019-05-13T14:20:03.267Z,28.33
2019-05-13T14:25:02.900Z,25.82
2019-05-13T14:30:02.537Z,24.97
2019-05-13T14:35:03.035Z,24.48
2019-05-13T14:41:09.112Z,23.15
2019-05-13T14:45:03.213Z,24.99
2019-05-13T14:50:02.764Z,24.58
2019-05-13T14:55:03.234Z,25.35
2019-05-13T15:00:02.829Z,24.94
2019-05-13T15:05:03.384Z,25.68
2019-05-13T15:10:02.910Z,26.69
2019-05-13T15:15:03.456Z,27.45
2019-05-13T15:20:02.421Z,28.01
2019-05-13T15:25:03.002Z,27.71
2019-05-13T15:30:16.686Z,28.0
2019-05-13T15:35:03.226Z,28.11
2019-05-13T15:40:02.759Z,28.88
2019-05-13T15:45:03.225Z,29.31
2019-05-13T15:50:02.787Z,29.57
2019-05-13T15:55:03.269Z,29.78
2019-05-13T16:00:02.780Z,30.26
2019-05-13T16:05:04.869Z,30.37
2019-05-13T16:10:05.912Z,30.37
2019-05-13T16:15:02.787Z,31.23
2019-05-13T16:20:03.272Z,31.56
2019-05-13T16:25:02.709Z,31.55
2019-05-13T16:30:03.393Z,31.75
2019-05-13T16:35:03.061Z,32.08
2019-05-13T16:40:02.601Z,32.12
2019-05-13T16:45:03.155Z,32.64
2019-05-13T16:50:02.900Z,32.75
2019-05-13T16:55:03.412Z,32.87
2019-05-13T17:00:02.930Z,32.56
2019-05-13T17:05:03.503Z,33.43
2019-05-13T17:10:03.804Z,33.9
2019-05-13T17:15:03.350Z,34.43
2019-05-13T17:20:02.867Z,34.62
2019-05-13T17:25:03.334Z,34.92
2019-05-13T17:30:02.825Z,35.12
2019-05-13T17:35:03.268Z,35.4
2019-05-13T17:40:02.792Z,35.66
2019-05-13T17:45:03.344Z,36.03
2019-05-13T17:50:02.798Z,36.16
2019-05-13T17:55:03.297Z,36.44
2019-05-13T18:00:02.827Z,36.62
2019-05-13T18:05:03.281Z,36.79
2019-05-13T18:10:02.789Z,36.75
2019-05-13T18:15:03.332Z,36.82
2019-05-13T18:20:02.859Z,37.23
2019-05-13T18:25:03.407Z,37.44
2019-05-13T18:30:02.921Z,37.45
2019-05-13T18:35:03.468Z,38.04
2019-05-13T18:40:02.680Z,38.33
2019-05-13T18:45:03.235Z,38.61
2019-05-13T18:50:02.753Z,38.85
2019-05-13T18:55:03.190Z,38.93
2019-05-13T19:00:02.718Z,39.17
2019-05-13T19:05:03.279Z,39.36
2019-05-13T19:10:02.809Z,39.64
2019-05-13T19:16:07.729Z,39.89
2019-05-13T19:20:03.254Z,39.89
2019-05-13T19:25:02.784Z,40.06
2019-05-13T19:30:03.327Z,40.23
2019-05-13T19:35:02.851Z,40.27
2019-05-13T19:40:03.384Z,40.41
2019-05-13T19:45:02.885Z,40.65
2019-05-13T19:50:03.360Z,40.7
2019-05-13T19:55:02.915Z,40.89
2019-05-13T20:00:03.424Z,40.91
2019-05-13T20:05:02.979Z,41.1
2019-05-13T20:10:02.919Z,41.03
2019-05-13T20:15:02.549Z,41.51
2019-05-13T20:20:03.075Z,41.47
2019-05-13T20:25:02.610Z,41.6
2019-05-13T20:30:03.142Z,41.53
2019-05-13T20:35:02.664Z,41.85
2019-05-13T20:40:03.193Z,42.07
2019-05-13T20:45:02.719Z,42.11
2019-05-13T20:50:03.450Z,42.03
2019-05-13T20:55:03.070Z,42.02
2019-05-13T21:00:02.648Z,42.25
2019-05-13T21:05:03.137Z,42.03
2019-05-13T21:10:02.583Z,42.36
2019-05-13T21:15:03.106Z,42.63
2019-05-13T21:20:17.927Z,42.66
2019-05-13T21:25:02.966Z,42.7
2019-05-13T21:30:02.489Z,42.83
2019-05-13T21:35:03.037Z,43.04
2019-05-13T21:40:02.556Z,43.12
2019-05-13T21:45:03.096Z,43.1
2019-05-13T21:50:02.635Z,43.28
2019-05-13T21:55:03.178Z,43.34
2019-05-13T22:00:02.695Z,43.39
2019-05-13T22:05:03.237Z,43.49
2019-05-13T22:10:02.754Z,43.44
2019-05-13T22:15:03.197Z,43.35
2019-05-13T22:20:02.722Z,43.7
2019-05-13T22:25:03.269Z,43.91
2019-05-13T22:30:02.784Z,43.95
2019-05-13T22:35:03.232Z,44.03
2019-05-13T22:40:04.154Z,44.28
2019-05-13T22:45:03.045Z,44.53
2019-05-13T22:50:02.613Z,44.59
2019-05-13T22:55:03.055Z,44.83
2019-05-13T23:00:07.188Z,44.83
2019-05-13T23:05:03.328Z,44.84
2019-05-13T23:10:02.846Z,44.96
2019-05-13T23:15:03.395Z,45.06
2019-05-13T23:20:02.867Z,45.14
2019-05-13T23:25:03.361Z,45.17
2019-05-13T23:30:02.879Z,45.23
2019-05-13T23:35:03.346Z,45.33
2019-05-13T23:40:02.844Z,45.26
2019-05-13T23:45:03.301Z,45.59
2019-05-13T23:50:02.803Z,45.63
2019-05-13T23:55:05.799Z,45.94
